Time;durP1;ratioP1;P1;durP2;ratioP2;P2;SDS_P1;SDS_P2;PMS_P1;PMS_P2;Temp;Humidity;BMP_temperature;BMP_pressure;BME280_temperature;BME280_humidity;BME280_pressure;Samples;Min_cycle;Max_cycle;Signal;HPM_P1;HPM_P2
2023/03/10 00:01:43;;;;;;;;;;;11.60;1.00;;;;;;5059935;28;19963;-80
2023/03/10 00:04:25;;;;;;;;;;;11.60;1.00;;;;;;5069633;28;19916;-79
2023/03/10 00:06:55;;;;;;;;;;;11.60;1.00;;;;;;5073561;28;19908;-80
2023/03/10 00:09:21;;;;;;;;;;;11.60;1.00;;;;;;5073832;28;19974;-80
2023/03/10 00:12:01;;;;;;;;;;;11.60;1.00;;;;;;5073742;28;20375;-80
2023/03/10 00:14:31;;;;;;;;;;;11.60;1.00;;;;;;5063871;28;20265;-80
2023/03/10 00:17:31;;;;;;;;;;;11.60;1.00;;;;;;5069316;28;19919;-79
2023/03/10 00:20:19;;;;;;;;;;;11.60;1.00;;;;;;5079365;28;19916;-80
2023/03/10 00:22:55;;;;;;;;;;;11.60;1.00;;;;;;5061766;28;19915;-79
2023/03/10 00:25:25;;;;;;;;;;;11.60;1.00;;;;;;5072213;28;19913;-79
2023/03/10 00:27:55;;;;;;;;;;;11.60;1.00;;;;;;5079772;28;19912;-79
2023/03/10 00:30:25;;;;;;;;;;;11.60;1.00;;;;;;5072732;28;19913;-79
2023/03/10 00:32:55;;;;;;;;;;;11.70;1.00;;;;;;5073592;28;19908;-79
2023/03/10 00:35:49;;;;;;;;;;;11.70;1.00;;;;;;5073316;28;19924;-79
2023/03/10 00:38:25;;;;;;;;;;;11.70;1.00;;;;;;5072241;28;19909;-80
2023/03/10 00:40:58;;;;;;;;;;;11.80;1.00;;;;;;5071182;28;19916;-81
2023/03/10 00:43:25;;;;;;;;;;;11.90;1.00;;;;;;5106908;28;19908;-89
2023/03/10 00:45:55;;;;;;;;;;;11.90;1.00;;;;;;5069521;28;20282;-88
2023/03/10 00:48:55;;;;;;;;;;;11.90;1.00;;;;;;5072738;28;19920;-87
2023/03/10 00:51:55;;;;;;;;;;;11.90;1.00;;;;;;5085756;28;19954;-88
2023/03/10 00:54:55;;;;;;;;;;;12.00;1.00;;;;;;5055691;28;19912;-88
2023/03/10 00:57:25;;;;;;;;;;;12.00;1.00;;;;;;5081481;28;19912;-80
2023/03/10 00:59:51;;;;;;;;;;;12.00;1.00;;;;;;5076735;28;20417;-80
2023/03/10 01:05:55;;;;;;;;;;;12.00;1.00;;;;;;5085968;28;20390;-80
2023/03/10 01:08:49;;;;;;;;;;;11.90;1.00;;;;;;5059014;28;20386;-82
2023/03/10 01:11:26;;;;;;;;;;;12.00;1.00;;;;;;5060895;28;19909;-81
2023/03/10 01:13:59;;;;;;;;;;;12.00;1.00;;;;;;5076686;28;20356;-79
2023/03/10 01:16:25;;;;;;;;;;;12.00;1.00;;;;;;5076294;28;19909;-79
2023/03/10 01:18:51;;;;;;;;;;;12.00;1.00;;;;;;5076540;28;20279;-79
2023/03/10 01:21:49;;;;;;;;;;;12.00;1.00;;;;;;5075872;28;19913;-80
2023/03/10 01:24:37;;;;;;;;;;;11.90;1.00;;;;;;5055207;28;19909;-80
2023/03/10 01:27:06;;;;;;;;;;;11.90;1.00;;;;;;5074148;28;20042;-82
2023/03/10 01:39:01;;;;;;;;;;;11.90;1.00;;;;;;5076619;28;19919;-89
2023/03/10 01:41:31;;;;;;;;;;;11.80;1.00;;;;;;5065632;28;20367;-89
2023/03/10 01:44:19;;;;;;;;;;;11.80;1.00;;;;;;5075725;28;19912;-88
2023/03/10 01:46:49;;;;;;;;;;;11.90;1.00;;;;;;5084722;28;20041;-89
2023/03/10 01:49:27;;;;;;;;;;;11.80;1.00;;;;;;5038957;28;19917;-88
2023/03/10 01:55:15;;;;;;;;;;;11.80;1.00;;;;;;5036525;28;19917;-88
2023/03/10 01:57:56;;;;;;;;;;;11.80;1.00;;;;;;5055622;28;19913;-80
2023/03/10 02:00:26;;;;;;;;;;;11.80;1.00;;;;;;5037760;28;19909;-84
2023/03/10 02:03:25;;;;;;;;;;;11.80;1.00;;;;;;5037487;28;19909;-81
2023/03/10 02:05:57;;;;;;;;;;;11.70;1.00;;;;;;5052110;28;19915;-78
2023/03/10 02:08:28;;;;;;;;;;;11.70;1.00;;;;;;5040206;28;19913;-80
2023/03/10 02:10:54;;;;;;;;;;;11.80;1.00;;;;;;5053658;28;19913;-80
2023/03/10 02:13:55;;;;;;;;;;;11.80;1.00;;;;;;5055743;28;19909;-87
2023/03/10 02:16:25;;;;;;;;;;;11.80;1.00;;;;;;5056352;28;20249;-88
2023/03/10 02:18:55;;;;;;;;;;;11.80;1.00;;;;;;5056394;28;19909;-89
2023/03/10 02:21:25;;;;;;;;;;;11.70;1.00;;;;;;5038213;28;19913;-88
2023/03/10 02:23:55;;;;;;;;;;;11.70;1.00;;;;;;5051248;28;19913;-88
2023/03/10 02:26:29;;;;;;;;;;;11.70;1.00;;;;;;5030384;28;19909;-89
2023/03/10 02:28:57;;;;;;;;;;;11.80;1.00;;;;;;5045365;28;19959;-88
2023/03/10 02:31:25;;;;;;;;;;;11.70;1.00;;;;;;5055940;28;20011;-88
2023/03/10 02:33:56;;;;;;;;;;;11.80;1.00;;;;;;5055836;28;19952;-88
2023/03/10 02:36:25;;;;;;;;;;;11.80;1.00;;;;;;5055793;28;19909;-89
2023/03/10 02:42:25;;;;;;;;;;;11.80;1.00;;;;;;5041731;28;20012;-90
2023/03/10 02:47:53;;;;;;;;;;;11.80;1.00;;;;;;5063983;28;19966;-89
2023/03/10 02:50:20;;;;;;;;;;;11.80;1.00;;;;;;5067594;28;19909;-89
2023/03/10 02:55:56;;;;;;;;;;;11.70;1.00;;;;;;5075242;28;20330;-89
2023/03/10 02:58:24;;;;;;;;;;;11.70;1.00;;;;;;5105960;28;20287;-80
2023/03/10 03:00:55;;;;;;;;;;;11.70;1.00;;;;;;5065278;28;19958;-80
2023/03/10 03:03:25;;;;;;;;;;;11.70;1.00;;;;;;5073340;28;19908;-79
2023/03/10 03:05:51;;;;;;;;;;;11.70;1.00;;;;;;5061250;28;20267;-79
2023/03/10 03:08:20;;;;;;;;;;;11.60;1.00;;;;;;5068673;28;19916;-80
2023/03/10 03:10:55;;;;;;;;;;;11.50;1.00;;;;;;5074421;28;19909;-79
2023/03/10 03:13:49;;;;;;;;;;;11.30;1.00;;;;;;5074765;28;19916;-88
2023/03/10 03:16:15;;;;;;;;;;;11.20;1.00;;;;;;5070877;28;19913;-88
2023/03/10 03:18:55;;;;;;;;;;;11.20;1.00;;;;;;5072808;28;19954;-88
2023/03/10 03:21:26;;;;;;;;;;;11.10;1.00;;;;;;5073915;28;19909;-87
2023/03/10 03:23:55;;;;;;;;;;;11.10;1.00;;;;;;5062049;28;19951;-88
2023/03/10 03:26:28;;;;;;;;;;;11.00;1.00;;;;;;5068781;28;20367;-88
2023/03/10 03:28:55;;;;;;;;;;;11.00;1.00;;;;;;5096695;28;20440;-88
2023/03/10 03:31:25;;;;;;;;;;;10.90;1.00;;;;;;5107606;28;19916;-88
2023/03/10 03:34:25;;;;;;;;;;;10.90;1.00;;;;;;5074745;28;20283;-88
2023/03/10 03:37:25;;;;;;;;;;;10.90;1.00;;;;;;5073336;28;19909;-88
2023/03/10 03:40:01;;;;;;;;;;;10.90;1.00;;;;;;5073708;28;19916;-88
2023/03/10 03:42:55;;;;;;;;;;;10.90;1.00;;;;;;5070118;28;19916;-88
2023/03/10 03:45:22;;;;;;;;;;;10.90;1.00;;;;;;5053214;28;19915;-80
2023/03/10 03:47:48;;;;;;;;;;;10.90;1.00;;;;;;5073015;28;19989;-79
2023/03/10 03:50:14;;;;;;;;;;;10.90;1.00;;;;;;5072790;28;20368;-79
2023/03/10 03:52:49;;;;;;;;;;;10.90;1.00;;;;;;5073952;28;19991;-79
2023/03/10 03:55:19;;;;;;;;;;;10.90;1.00;;;;;;5073742;28;19912;-79
2023/03/10 03:57:55;;;;;;;;;;;10.90;1.00;;;;;;5073444;28;19916;-79
2023/03/10 04:00:25;;;;;;;;;;;10.90;1.00;;;;;;5066384;28;20284;-88
2023/03/10 04:02:55;;;;;;;;;;;10.90;1.00;;;;;;5053508;28;20372;-89
2023/03/10 04:14:55;;;;;;;;;;;10.70;1.00;;;;;;5074747;28;19915;-89
2023/03/10 04:17:25;;;;;;;;;;;10.70;1.00;;;;;;5073397;28;19957;-89
2023/03/10 04:20:13;;;;;;;;;;;10.60;1.00;;;;;;5073990;28;19957;-89
2023/03/10 04:22:55;;;;;;;;;;;10.70;1.00;;;;;;5074435;28;20318;-88
2023/03/10 04:25:25;;;;;;;;;;;10.60;1.00;;;;;;5072809;28;19912;-88
2023/03/10 04:27:56;;;;;;;;;;;10.40;1.00;;;;;;5073182;28;20014;-88
2023/03/10 04:30:31;;;;;;;;;;;10.40;1.00;;;;;;5075049;28;19920;-81
2023/03/10 04:32:58;;;;;;;;;;;10.40;1.00;;;;;;5110012;28;19909;-81
2023/03/10 04:35:26;;;;;;;;;;;10.50;1.00;;;;;;5076728;28;19979;-80
2023/03/10 04:38:13;;;;;;;;;;;10.50;1.00;;;;;;5092996;28;19916;-80
2023/03/10 04:40:55;;;;;;;;;;;10.40;1.00;;;;;;5065770;28;19919;-79
2023/03/10 04:43:26;;;;;;;;;;;10.40;1.00;;;;;;5077042;28;19919;-80
2023/03/10 04:45:55;;;;;;;;;;;10.50;1.00;;;;;;5077895;28;20378;-88
2023/03/10 04:48:22;;;;;;;;;;;10.50;1.00;;;;;;5077638;28;19927;-88
2023/03/10 04:53:56;;;;;;;;;;;10.50;1.00;;;;;;5074752;28;19915;-88
2023/03/10 04:56:25;;;;;;;;;;;10.50;1.00;;;;;;5076714;28;19914;-88
2023/03/10 04:58:55;;;;;;;;;;;10.60;1.00;;;;;;5077406;28;20321;-88
2023/03/10 05:01:43;;;;;;;;;;;10.60;1.00;;;;;;5076936;28;19930;-79
2023/03/10 05:04:13;;;;;;;;;;;10.60;1.00;;;;;;5062648;28;19912;-79
2023/03/10 05:06:39;;;;;;;;;;;10.60;1.00;;;;;;5076814;28;19966;-79
2023/03/10 05:09:04;;;;;;;;;;;10.50;1.00;;;;;;5060827;28;19917;-79
2023/03/10 05:11:30;;;;;;;;;;;10.60;1.00;;;;;;5065886;28;20346;-80
2023/03/10 05:13:56;;;;;;;;;;;10.50;1.00;;;;;;5076616;28;19940;-80
2023/03/10 05:16:25;;;;;;;;;;;10.50;1.00;;;;;;5076778;28;20312;-79
2023/03/10 05:18:51;;;;;;;;;;;10.50;1.00;;;;;;5072501;28;19965;-79
2023/03/10 05:21:31;;;;;;;;;;;10.50;1.00;;;;;;5073854;28;19908;-81
2023/03/10 05:24:13;;;;;;;;;;;10.50;1.00;;;;;;5076005;28;19924;-80
2023/03/10 05:26:55;;;;;;;;;;;10.50;1.00;;;;;;5075008;28;19924;-79
2023/03/10 05:29:25;;;;;;;;;;;10.60;1.00;;;;;;5075385;28;19926;-81
2023/03/10 05:31:51;;;;;;;;;;;10.60;1.00;;;;;;5076100;28;19909;-80
2023/03/10 05:34:25;;;;;;;;;;;10.60;1.00;;;;;;5071713;28;19912;-80
2023/03/10 05:36:55;;;;;;;;;;;10.60;1.00;;;;;;5060177;28;19909;-80
2023/03/10 05:39:21;;;;;;;;;;;10.60;1.00;;;;;;5059712;28;19913;-79
2023/03/10 05:41:55;;;;;;;;;;;10.60;1.00;;;;;;5071206;28;20253;-79
2023/03/10 05:44:25;;;;;;;;;;;10.60;1.00;;;;;;5069076;28;19909;-83
2023/03/10 05:46:51;;;;;;;;;;;10.60;1.00;;;;;;5070280;28;20003;-86
2023/03/10 05:49:37;;;;;;;;;;;10.50;1.00;;;;;;5065697;28;20356;-86
2023/03/10 05:55:15;;;;;;;;;;;10.50;1.00;;;;;;5069547;28;19919;-86
2023/03/10 06:00:44;;;;;;;;;;;10.60;1.00;;;;;;5065749;28;19918;-86
2023/03/10 06:18:25;;;;;;;;;;;10.50;1.00;;;;;;5069208;28;19919;-86
2023/03/10 06:23:54;;;;;;;;;;;10.30;1.00;;;;;;5069789;28;19919;-86
2023/03/10 06:26:21;;;;;;;;;;;10.30;1.00;;;;;;5074533;28;19992;-86
2023/03/10 06:31:50;;;;;;;;;;;10.30;2.50;;;;;;5076056;28;20006;-90
2023/03/10 06:34:16;;;;;;;;;;;10.30;7.00;;;;;;5075672;28;19912;-90
2023/03/10 06:42:47;;;;;;;;;;;10.40;15.70;;;;;;5075356;28;19919;-90
2023/03/10 06:45:21;;;;;;;;;;;10.50;17.10;;;;;;5071674;28;19984;-82
2023/03/10 06:47:46;;;;;;;;;;;10.60;13.30;;;;;;5075072;28;19921;-82
2023/03/10 06:50:12;;;;;;;;;;;10.50;9.20;;;;;;5074611;28;19915;-82
2023/03/10 06:52:44;;;;;;;;;;;10.50;9.50;;;;;;5065243;28;19913;-82
2023/03/10 06:58:13;;;;;;;;;;;10.50;15.70;;;;;;5061942;28;19931;-81
2023/03/10 07:00:43;;;;;;;;;;;10.40;15.60;;;;;;5073936;28;20387;-82
2023/03/10 07:03:13;;;;;;;;;;;10.30;17.30;;;;;;5074088;28;19923;-83
2023/03/10 07:05:43;;;;;;;;;;;10.30;18.60;;;;;;5072858;28;19927;-83
2023/03/10 07:08:31;;;;;;;;;;;10.30;20.10;;;;;;5074008;28;20015;-83
2023/03/10 07:11:19;;;;;;;;;;;10.30;17.40;;;;;;5081040;28;19958;-83
2023/03/10 07:13:50;;;;;;;;;;;10.40;17.30;;;;;;5064521;28;19909;-85
2023/03/10 07:16:20;;;;;;;;;;;10.40;13.80;;;;;;5058501;28;20552;-83
2023/03/10 07:19:19;;;;;;;;;;;10.50;13.30;;;;;;5073129;28;19909;-83
2023/03/10 07:25:01;;;;;;;;;;;10.60;12.20;;;;;;5074185;28;20271;-83
2023/03/10 07:27:32;;;;;;;;;;;10.50;12.70;;;;;;5077015;28;19912;-83
2023/03/10 07:29:58;;;;;;;;;;;10.50;15.10;;;;;;5085850;28;19922;-83
2023/03/10 07:32:25;;;;;;;;;;;10.60;14.60;;;;;;5074412;28;19995;-83
2023/03/10 07:34:51;;;;;;;;;;;10.60;12.90;;;;;;5067732;28;19962;-83
2023/03/10 07:40:23;;;;;;;;;;;10.70;11.60;;;;;;5073620;28;20336;-83
2023/03/10 07:45:55;;;;;;;;;;;10.90;4.80;;;;;;5060203;28;19919;-92
2023/03/10 07:48:32;;;;;;;;;;;11.00;1.30;;;;;;5074089;28;19920;-84
2023/03/10 07:54:00;;;;;;;;;;;11.00;1.00;;;;;;5073787;28;20433;-83
2023/03/10 07:56:38;;;;;;;;;;;11.10;1.00;;;;;;5071337;28;19912;-82
2023/03/10 07:59:03;;;;;;;;;;;11.00;1.00;;;;;;5053204;28;19913;-82
2023/03/10 08:01:49;;;;;;;;;;;11.00;1.00;;;;;;5084847;28;19966;-80
2023/03/10 08:07:18;;;;;;;;;;;11.00;1.00;;;;;;5070675;28;20323;-80
2023/03/10 08:09:56;;;;;;;;;;;11.10;1.00;;;;;;5077143;28;19917;-79
2023/03/10 08:12:43;;;;;;;;;;;11.20;1.00;;;;;;5074952;28;19916;-80
2023/03/10 08:15:14;;;;;;;;;;;11.20;1.00;;;;;;5075971;28;19913;-79
2023/03/10 08:17:56;;;;;;;;;;;11.20;1.00;;;;;;5110483;28;19920;-82
2023/03/10 08:20:21;;;;;;;;;;;11.10;1.00;;;;;;5066475;28;20279;-83
2023/03/10 08:22:47;;;;;;;;;;;11.20;1.00;;;;;;5071706;28;19913;-83
2023/03/10 08:25:26;;;;;;;;;;;11.10;1.00;;;;;;5075925;28;19912;-83
2023/03/10 08:27:54;;;;;;;;;;;10.70;1.00;;;;;;5066986;28;20326;-82
2023/03/10 08:33:23;;;;;;;;;;;10.70;7.70;;;;;;5066449;28;19920;-79
2023/03/10 08:36:16;;;;;;;;;;;10.70;10.60;;;;;;5070476;28;20052;-79
2023/03/10 08:39:07;;;;;;;;;;;10.90;15.20;;;;;;5030458;28;19936;-79
2023/03/10 08:41:55;;;;;;;;;;;11.10;13.10;;;;;;5035066;28;19909;-80
2023/03/10 08:44:43;;;;;;;;;;;11.10;7.00;;;;;;5018111;28;19963;-79
2023/03/10 08:47:09;;;;;;;;;;;11.30;7.60;;;;;;5035245;28;19953;-83
2023/03/10 08:50:01;;;;;;;;;;;11.40;1.20;;;;;;5034800;28;19970;-83
2023/03/10 08:52:38;;;;;;;;;;;11.50;1.00;;;;;;5045259;28;19910;-83
2023/03/10 08:55:04;;;;;;;;;;;11.50;1.00;;;;;;5030217;28;19995;-83
2023/03/10 08:57:44;;;;;;;;;;;11.50;1.00;;;;;;5030090;28;19917;-83
2023/03/10 09:00:14;;;;;;;;;;;11.50;1.00;;;;;;5020748;28;19917;-83
2023/03/10 09:03:01;;;;;;;;;;;11.50;1.00;;;;;;5044071;28;19916;-83
2023/03/10 09:05:44;;;;;;;;;;;11.50;1.00;;;;;;5040741;28;19909;-83
2023/03/10 09:08:13;;;;;;;;;;;11.50;1.00;;;;;;5034440;28;19920;-84
2023/03/10 09:10:49;;;;;;;;;;;11.40;1.00;;;;;;5034312;28;20067;-82
2023/03/10 09:13:20;;;;;;;;;;;11.30;1.00;;;;;;5034084;28;19920;-82
2023/03/10 09:15:51;;;;;;;;;;;11.30;1.00;;;;;;5052370;28;19962;-83
2023/03/10 09:18:20;;;;;;;;;;;11.50;1.00;;;;;;5077187;28;19915;-83
2023/03/10 09:20:56;;;;;;;;;;;11.60;1.00;;;;;;5075091;28;19957;-79
2023/03/10 09:23:26;;;;;;;;;;;11.70;1.00;;;;;;5083194;28;19916;-80
2023/03/10 09:26:08;;;;;;;;;;;11.90;1.00;;;;;;5064237;28;20364;-80
2023/03/10 09:28:50;;;;;;;;;;;11.90;1.00;;;;;;5075217;28;20447;-80
2023/03/10 09:31:24;;;;;;;;;;;12.10;1.00;;;;;;5077073;28;19962;-80
2023/03/10 09:33:55;;;;;;;;;;;12.10;1.00;;;;;;5075963;28;19919;-79
2023/03/10 09:36:21;;;;;;;;;;;12.10;1.00;;;;;;5075887;28;19943;-80
2023/03/10 09:38:47;;;;;;;;;;;12.10;1.00;;;;;;5069517;28;19959;-79
2023/03/10 09:41:31;;;;;;;;;;;12.00;1.00;;;;;;5076328;28;19939;-79
2023/03/10 09:44:08;;;;;;;;;;;12.00;1.00;;;;;;5072033;28;19912;-79
2023/03/10 09:46:42;;;;;;;;;;;12.00;1.00;;;;;;5076158;28;20340;-80
2023/03/10 09:49:31;;;;;;;;;;;12.00;1.00;;;;;;5068535;28;19943;-85
2023/03/10 09:58:03;;;;;;;;;;;12.00;1.00;;;;;;5075508;28;19915;-84
2023/03/10 10:00:39;;;;;;;;;;;11.90;1.00;;;;;;5065580;28;19916;-83
2023/03/10 10:03:12;;;;;;;;;;;11.60;1.00;;;;;;5085410;28;19966;-84
2023/03/10 10:06:08;;;;;;;;;;;11.60;1.00;;;;;;5063502;28;19909;-84
2023/03/10 10:11:36;;;;;;;;;;;11.70;1.00;;;;;;5066689;28;19915;-85
2023/03/10 10:17:14;;;;;;;;;;;12.20;1.00;;;;;;5069438;28;19923;-86
2023/03/10 10:22:44;;;;;;;;;;;12.60;1.00;;;;;;5055745;28;20321;-85
2023/03/10 10:28:17;;;;;;;;;;;12.30;1.00;;;;;;5057068;28;19920;-85
2023/03/10 10:30:44;;;;;;;;;;;12.20;1.00;;;;;;5062818;28;19913;-84
2023/03/10 10:33:10;;;;;;;;;;;12.10;1.00;;;;;;5070125;28;19920;-79
2023/03/10 10:35:39;;;;;;;;;;;12.20;1.00;;;;;;5067293;28;19909;-79
2023/03/10 10:38:32;;;;;;;;;;;12.30;1.00;;;;;;5075358;28;19958;-79
2023/03/10 10:41:00;;;;;;;;;;;12.40;1.00;;;;;;5075171;28;20003;-80
2023/03/10 10:43:26;;;;;;;;;;;12.40;1.00;;;;;;5068782;28;19919;-80
2023/03/10 10:46:05;;;;;;;;;;;12.30;1.00;;;;;;5066286;28;19912;-79
2023/03/10 10:48:40;;;;;;;;;;;12.00;1.00;;;;;;5070679;28;19959;-85
2023/03/10 10:54:27;;;;;;;;;;;12.20;1.00;;;;;;5095546;28;19915;-84
2023/03/10 10:56:54;;;;;;;;;;;12.30;1.00;;;;;;5077282;28;19914;-85
2023/03/10 11:02:28;;;;;;;;;;;12.30;1.00;;;;;;5094298;28;19915;-85
2023/03/10 11:05:22;;;;;;;;;;;12.20;1.00;;;;;;5088393;28;19908;-84
2023/03/10 11:11:28;;;;;;;;;;;12.50;1.00;;;;;;5092781;28;19932;-83
2023/03/10 11:16:58;;;;;;;;;;;12.60;1.00;;;;;;5017655;28;19999;-84
2023/03/10 11:19:38;;;;;;;;;;;12.50;1.00;;;;;;5021565;28;19919;-80
2023/03/10 11:22:14;;;;;;;;;;;12.60;1.00;;;;;;5022885;28;20268;-78
2023/03/10 11:36:57;;;;;;;;;;;13.50;1.00;;;;;;5032969;28;19959;-83
2023/03/10 11:42:44;;;;;;;;;;;13.80;1.00;;;;;;5042741;28;20446;-82
2023/03/10 11:48:20;;;;;;;;;;;13.40;1.00;;;;;;5058004;28;20279;-83
2023/03/10 11:50:51;;;;;;;;;;;13.10;1.00;;;;;;5071293;28;20291;-81
2023/03/10 11:53:36;;;;;;;;;;;13.30;1.00;;;;;;5071971;28;19908;-79
2023/03/10 11:56:11;;;;;;;;;;;13.40;1.00;;;;;;5091699;28;19915;-79
2023/03/10 11:58:49;;;;;;;;;;;13.50;1.00;;;;;;5074472;28;19912;-79
2023/03/10 12:01:16;;;;;;;;;;;13.60;1.00;;;;;;5093923;28;20247;-81
2023/03/10 12:03:58;;;;;;;;;;;13.60;1.00;;;;;;5080198;28;19915;-79
2023/03/10 12:06:46;;;;;;;;;;;13.60;1.00;;;;;;5090230;28;19916;-81
2023/03/10 12:09:34;;;;;;;;;;;13.50;1.00;;;;;;5005289;28;19914;-80
2023/03/10 12:12:02;;;;;;;;;;;13.40;1.00;;;;;;4962141;28;19922;-79
2023/03/10 12:17:39;;;;;;;;;;;13.00;1.00;;;;;;4963489;28;19915;-79
2023/03/10 12:23:08;;;;;;;;;;;12.40;1.00;;;;;;4967054;28;19921;-80
2023/03/10 12:25:50;;;;;;;;;;;12.20;1.00;;;;;;4972430;28;19914;-80
2023/03/10 12:28:16;;;;;;;;;;;12.10;1.00;;;;;;4970799;28;19918;-79
2023/03/10 12:31:02;;;;;;;;;;;12.00;1.00;;;;;;4972637;28;20266;-79
2023/03/10 12:33:33;;;;;;;;;;;12.10;1.00;;;;;;4970389;28;19910;-79
2023/03/10 12:39:20;;;;;;;;;;;12.30;1.00;;;;;;4970240;28;19921;-85
2023/03/10 12:45:16;;;;;;;;;;;12.20;1.00;;;;;;4968685;28;20425;-84
2023/03/10 12:47:42;;;;;;;;;;;12.10;1.00;;;;;;5018270;28;20392;-83
2023/03/10 12:53:44;;;;;;;;;;;12.00;1.00;;;;;;5092464;28;19947;-83
2023/03/10 12:59:15;;;;;;;;;;;12.10;1.00;;;;;;5088029;28;19961;-86
2023/03/10 13:02:08;;;;;;;;;;;11.90;1.00;;;;;;5083022;28;20011;-84
2023/03/10 13:05:08;;;;;;;;;;;11.80;1.00;;;;;;5097427;28;19909;-85
2023/03/10 13:07:44;;;;;;;;;;;11.70;1.00;;;;;;5097524;28;19908;-85
2023/03/10 13:10:32;;;;;;;;;;;11.60;1.00;;;;;;5074255;28;19923;-84
2023/03/10 13:16:03;;;;;;;;;;;11.50;1.00;;;;;;5100323;28;20440;-84
2023/03/10 13:18:45;;;;;;;;;;;11.30;1.00;;;;;;5070923;28;19915;-77
2023/03/10 13:21:30;;;;;;;;;;;11.10;1.00;;;;;;5095549;28;19912;-79
2023/03/10 13:24:26;;;;;;;;;;;11.00;1.00;;;;;;5096507;28;19997;-79
2023/03/10 13:27:01;;;;;;;;;;;10.90;1.00;;;;;;5095459;28;19912;-78
2023/03/10 13:29:27;;;;;;;;;;;10.70;1.00;;;;;;5077014;28;19916;-78
2023/03/10 13:31:56;;;;;;;;;;;10.70;1.00;;;;;;5080910;28;19919;-77
2023/03/10 13:37:50;;;;;;;;;;;11.20;1.00;;;;;;5094445;28;19956;-86
2023/03/10 13:40:20;;;;;;;;;;;11.50;1.00;;;;;;5096980;28;19909;-87
2023/03/10 13:42:56;;;;;;;;;;;11.50;1.00;;;;;;5096590;28;19913;-86
2023/03/10 13:48:32;;;;;;;;;;;11.40;1.00;;;;;;5082506;28;19922;-86
2023/03/10 13:54:26;;;;;;;;;;;11.40;1.00;;;;;;5096672;28;20010;-86
2023/03/10 13:59:55;;;;;;;;;;;11.50;1.00;;;;;;5083592;28;19919;-86
2023/03/10 14:05:50;;;;;;;;;;;11.60;1.00;;;;;;5096317;28;19918;-79
2023/03/10 14:08:31;;;;;;;;;;;11.50;1.00;;;;;;5095513;28;19912;-79
2023/03/10 14:11:20;;;;;;;;;;;11.50;1.00;;;;;;5079702;28;19974;-80
2023/03/10 14:14:08;;;;;;;;;;;11.30;1.00;;;;;;5084708;28;19998;-79
2023/03/10 14:16:52;;;;;;;;;;;11.10;1.00;;;;;;5089384;28;20006;-78
2023/03/10 14:19:37;;;;;;;;;;;10.70;1.00;;;;;;5073504;28;19983;-77
2023/03/10 14:25:18;;;;;;;;;;;10.70;3.40;;;;;;5094868;28;19919;-84
2023/03/10 14:28:16;;;;;;;;;;;10.70;5.50;;;;;;5093881;28;19915;-85
2023/03/10 14:30:44;;;;;;;;;;;10.60;10.00;;;;;;4951088;28;20334;-80
2023/03/10 14:33:26;;;;;;;;;;;10.70;11.30;;;;;;4971604;28;19922;-81
2023/03/10 14:36:14;;;;;;;;;;;10.80;8.50;;;;;;4972688;28;19950;-77
2023/03/10 14:38:56;;;;;;;;;;;10.80;10.30;;;;;;4970424;28;20436;-78
2023/03/10 14:41:32;;;;;;;;;;;10.70;13.80;;;;;;4969525;28;19922;-80
2023/03/10 14:44:32;;;;;;;;;;;10.70;14.10;;;;;;4971382;28;19914;-80
2023/03/10 14:46:57;;;;;;;;;;;10.70;20.30;;;;;;4965205;28;20009;-80
2023/03/10 14:49:24;;;;;;;;;;;10.60;14.80;;;;;;4957380;28;20078;-78
2023/03/10 14:51:56;;;;;;;;;;;10.50;18.10;;;;;;4955700;28;19922;-78
2023/03/10 14:54:22;;;;;;;;;;;10.60;14.80;;;;;;4965263;28;19914;-77
2023/03/10 14:56:59;;;;;;;;;;;10.70;11.10;;;;;;4966569;28;19980;-79
2023/03/10 14:59:38;;;;;;;;;;;10.60;11.40;;;;;;4973018;28;20004;-78
2023/03/10 15:02:16;;;;;;;;;;;10.50;13.00;;;;;;4966417;28;20013;-79
2023/03/10 15:05:08;;;;;;;;;;;10.50;15.40;;;;;;4973462;28;19976;-78
2023/03/10 15:07:50;;;;;;;;;;;10.60;6.80;;;;;;5076659;28;19908;-82
2023/03/10 15:10:21;;;;;;;;;;;10.50;1.00;;;;;;5085367;28;19959;-82
2023/03/10 15:13:20;;;;;;;;;;;10.50;1.00;;;;;;5076109;28;19915;-82
2023/03/10 15:16:08;;;;;;;;;;;10.40;1.00;;;;;;5077956;28;19916;-85
2023/03/10 15:21:36;;;;;;;;;;;10.40;1.00;;;;;;5081613;28;19915;-78
2023/03/10 15:24:08;;;;;;;;;;;10.50;1.00;;;;;;5088344;28;19912;-79
2023/03/10 15:26:38;;;;;;;;;;;10.40;1.00;;;;;;5093622;28;19912;-79
2023/03/10 15:29:08;;;;;;;;;;;10.30;1.00;;;;;;5093929;28;20030;-84
2023/03/10 15:31:44;;;;;;;;;;;10.40;1.00;;;;;;5093949;28;19913;-79
2023/03/10 15:34:20;;;;;;;;;;;10.50;1.00;;;;;;5081787;28;19939;-85
2023/03/10 15:37:08;;;;;;;;;;;10.40;1.00;;;;;;5089176;28;19915;-84
2023/03/10 15:39:56;;;;;;;;;;;10.40;1.00;;;;;;5085777;28;19934;-84
2023/03/10 15:42:56;;;;;;;;;;;10.20;1.00;;;;;;5090020;28;19912;-80
2023/03/10 15:45:27;;;;;;;;;;;10.20;1.00;;;;;;5092523;28;19998;-81
2023/03/10 15:47:53;;;;;;;;;;;10.20;1.00;;;;;;5082607;28;19939;-78
2023/03/10 15:50:19;;;;;;;;;;;10.10;1.00;;;;;;5092154;28;20363;-79
2023/03/10 15:52:54;;;;;;;;;;;9.90;1.00;;;;;;5094145;28;19912;-81
2023/03/10 15:55:20;;;;;;;;;;;9.90;1.00;;;;;;5092243;28;19912;-78
2023/03/10 15:58:02;;;;;;;;;;;9.80;1.00;;;;;;5087768;28;19920;-77
2023/03/10 16:00:28;;;;;;;;;;;9.80;1.00;;;;;;5075862;28;19915;-77
2023/03/10 16:02:56;;;;;;;;;;;9.70;1.00;;;;;;5094359;28;20077;-77
2023/03/10 16:05:33;;;;;;;;;;;9.70;1.00;;;;;;5093185;28;19912;-77
2023/03/10 16:11:08;;;;;;;;;;;9.70;1.00;;;;;;5088685;28;20385;-86
2023/03/10 16:16:51;;;;;;;;;;;9.60;1.00;;;;;;5082554;28;19915;-87
2023/03/10 16:22:39;;;;;;;;;;;9.60;1.00;;;;;;5094522;28;19935;-78
2023/03/10 16:25:10;;;;;;;;;;;9.60;1.00;;;;;;5092452;28;19915;-78
2023/03/10 16:27:38;;;;;;;;;;;9.70;1.00;;;;;;5092259;28;20367;-79
2023/03/10 16:30:15;;;;;;;;;;;9.70;1.00;;;;;;5098436;28;20289;-78
2023/03/10 16:32:50;;;;;;;;;;;9.70;1.00;;;;;;5098011;28;19950;-81
2023/03/10 16:35:20;;;;;;;;;;;9.70;1.00;;;;;;5079513;28;20363;-81
2023/03/10 16:37:50;;;;;;;;;;;9.70;1.00;;;;;;5097304;28;19965;-77
2023/03/10 16:40:26;;;;;;;;;;;9.70;1.00;;;;;;5097263;28;19912;-77
2023/03/10 16:42:56;;;;;;;;;;;9.60;1.00;;;;;;5079617;28;19959;-77
2023/03/10 16:45:26;;;;;;;;;;;9.60;1.00;;;;;;5097531;28;19908;-77
2023/03/10 16:47:51;;;;;;;;;;;9.40;1.00;;;;;;5069833;28;19916;-77
2023/03/10 16:53:20;;;;;;;;;;;9.40;1.00;;;;;;5097234;28;20316;-86
2023/03/10 16:55:46;;;;;;;;;;;9.30;1.00;;;;;;5079766;28;19952;-85
2023/03/10 17:01:15;;;;;;;;;;;9.20;1.00;;;;;;5076736;28;19915;-81
2023/03/10 17:03:42;;;;;;;;;;;9.10;1.00;;;;;;5062054;28;19999;-81
2023/03/10 17:06:11;;;;;;;;;;;9.20;1.00;;;;;;5097007;28;19912;-82
2023/03/10 17:12:02;;;;;;;;;;;9.10;1.00;;;;;;5093467;28;19961;-83
2023/03/10 17:17:44;;;;;;;;;;;8.90;1.00;;;;;;5082550;28;19916;-78
2023/03/10 17:20:10;;;;;;;;;;;8.80;1.00;;;;;;5090391;28;19916;-78
2023/03/10 17:22:44;;;;;;;;;;;8.90;1.00;;;;;;5082264;28;20265;-79
2023/03/10 17:25:20;;;;;;;;;;;8.80;1.00;;;;;;5063358;28;20059;-79
2023/03/10 17:27:51;;;;;;;;;;;8.80;1.00;;;;;;5068178;28;19912;-79
2023/03/10 17:30:38;;;;;;;;;;;8.80;1.00;;;;;;5096786;28;19912;-81
2023/03/10 17:33:20;;;;;;;;;;;8.80;1.00;;;;;;5096460;28;20370;-80
2023/03/10 17:35:56;;;;;;;;;;;8.70;1.00;;;;;;5096701;28;19912;-82
2023/03/10 17:38:32;;;;;;;;;;;8.80;1.00;;;;;;5095554;28;19912;-83
2023/03/10 17:41:01;;;;;;;;;;;8.70;1.00;;;;;;5094568;28;19912;-78
2023/03/10 17:43:30;;;;;;;;;;;8.60;1.00;;;;;;5096291;28;19908;-76
2023/03/10 17:45:56;;;;;;;;;;;8.60;1.00;;;;;;5096119;28;19908;-79
2023/03/10 17:48:38;;;;;;;;;;;8.50;1.00;;;;;;5083789;28;20384;-77
2023/03/10 17:51:15;;;;;;;;;;;8.50;1.00;;;;;;5075999;28;19959;-78
2023/03/10 17:53:44;;;;;;;;;;;8.50;1.00;;;;;;5091876;28;19922;-79
2023/03/10 17:56:26;;;;;;;;;;;8.40;1.00;;;;;;5095761;28;20006;-80
2023/03/10 17:59:02;;;;;;;;;;;8.40;1.00;;;;;;5095913;28;20416;-81
2023/03/10 18:01:38;;;;;;;;;;;8.40;1.00;;;;;;5093092;28;19908;-81
2023/03/10 18:04:04;;;;;;;;;;;8.30;1.00;;;;;;5080012;28;19908;-80
2023/03/10 18:06:50;;;;;;;;;;;8.30;1.00;;;;;;5093454;28;20015;-79
2023/03/10 18:09:15;;;;;;;;;;;8.20;1.00;;;;;;5087944;28;19916;-80
2023/03/10 18:11:56;;;;;;;;;;;8.20;1.00;;;;;;5077185;28;19965;-80
2023/03/10 18:14:22;;;;;;;;;;;8.20;1.00;;;;;;5095836;28;19908;-80
2023/03/10 18:17:14;;;;;;;;;;;8.10;1.00;;;;;;5077061;28;19918;-80
2023/03/10 18:19:39;;;;;;;;;;;8.10;1.00;;;;;;5077234;28;19915;-79
2023/03/10 18:22:08;;;;;;;;;;;8.00;1.00;;;;;;5087510;28;19917;-80
2023/03/10 18:24:38;;;;;;;;;;;7.90;1.00;;;;;;5078817;28;19908;-77
2023/03/10 18:27:08;;;;;;;;;;;7.90;1.00;;;;;;5095533;28;19908;-77
2023/03/10 18:29:44;;;;;;;;;;;7.80;1.00;;;;;;5082036;28;20367;-77
2023/03/10 18:32:14;;;;;;;;;;;7.70;1.00;;;;;;5095450;28;20260;-78
2023/03/10 18:34:58;;;;;;;;;;;7.70;1.00;;;;;;5094860;28;19955;-77
2023/03/10 18:40:27;;;;;;;;;;;7.40;1.00;;;;;;5080862;28;19915;-76
2023/03/10 18:42:56;;;;;;;;;;;7.30;1.00;;;;;;5074513;28;19909;-77
2023/03/10 18:45:26;;;;;;;;;;;7.00;1.00;;;;;;5057013;28;20364;-77
2023/03/10 18:47:51;;;;;;;;;;;6.80;1.00;;;;;;5092156;28;19916;-76